Time;durP1;ratioP1;P1;durP2;ratioP2;P2;SDS_P1;SDS_P2;PMS_P1;PMS_P2;Temp;Humidity;BMP_temperature;BMP_pressure;BME280_temperature;BME280_humidity;BME280_pressure;Samples;Min_cycle;Max_cycle;Signal;HPM_P1;HPM_P2
2023/04/19 00:04:13;;;;;;;;;;;;;;;10.42;61.69;100859.15;214823;1263;61256;-75
2023/04/19 00:09:07;;;;;;;;;;;;;;;10.40;61.64;100851.14;214805;1260;182645;-76
2023/04/19 00:13:59;;;;;;;;;;;;;;;10.38;61.73;100846.60;214936;1260;61262;-76
2023/04/19 00:18:52;;;;;;;;;;;;;;;10.32;61.87;100833.83;215073;1260;61310;-76
2023/04/19 00:23:45;;;;;;;;;;;;;;;10.24;62.07;100825.33;214871;1260;61263;-77
2023/04/19 00:28:38;;;;;;;;;;;;;;;10.13;62.11;100819.05;215021;1262;61474;-76
2023/04/19 00:33:30;;;;;;;;;;;;;;;10.03;62.53;100814.17;215030;1261;61348;-76
2023/04/19 00:38:23;;;;;;;;;;;;;;;9.93;62.84;100813.27;215178;1263;61240;-76
2023/04/19 00:43:19;;;;;;;;;;;;;;;9.87;63.11;100813.33;215085;1262;61389;-76
2023/04/19 00:48:14;;;;;;;;;;;;;;;9.85;63.28;100816.38;215130;1260;75442;-76
2023/04/19 00:53:07;;;;;;;;;;;;;;;9.83;63.57;100808.71;215193;1259;73885;-75
2023/04/19 00:58:00;;;;;;;;;;;;;;;9.78;63.80;100804.63;215182;1262;61359;-76
2023/04/19 01:02:54;;;;;;;;;;;;;;;9.75;64.21;100794.20;215138;1261;62868;-76
2023/04/19 01:07:47;;;;;;;;;;;;;;;9.69;64.66;100786.09;215239;1259;61247;-76
2023/04/19 01:12:40;;;;;;;;;;;;;;;9.60;65.00;100777.41;215149;1260;61349;-76
2023/04/19 01:17:34;;;;;;;;;;;;;;;9.52;65.33;100772.05;215238;1259;72764;-76
2023/04/19 01:22:30;;;;;;;;;;;;;;;9.45;65.97;100774.31;214954;1260;61285;-75
2023/04/19 01:27:24;;;;;;;;;;;;;;;9.38;66.28;100769.83;215240;1259;67166;-76
2023/04/19 01:32:16;;;;;;;;;;;;;;;9.33;66.57;100772.14;215228;1259;61759;-76
2023/04/19 01:37:09;;;;;;;;;;;;;;;9.29;66.88;100770.32;215233;1260;61340;-76
2023/04/19 01:42:03;;;;;;;;;;;;;;;9.27;67.10;100762.83;215179;1263;61378;-76
2023/04/19 01:46:56;;;;;;;;;;;;;;;9.27;67.30;100763.35;215288;1260;61238;-76
2023/04/19 01:51:48;;;;;;;;;;;;;;;9.24;67.67;100764.32;215188;1260;61212;-76
2023/04/19 01:56:41;;;;;;;;;;;;;;;9.17;67.96;100757.07;214905;1260;61856;-76
2023/04/19 02:01:34;;;;;;;;;;;;;;;9.12;68.21;100748.51;214949;1260;61340;-76
2023/04/19 02:06:27;;;;;;;;;;;;;;;9.09;68.64;100747.55;214938;1261;61869;-76
2023/04/19 02:11:20;;;;;;;;;;;;;;;9.06;68.68;100747.14;214847;1260;62016;-76
2023/04/19 02:16:12;;;;;;;;;;;;;;;9.03;69.03;100747.95;215107;1260;61377;-76
2023/04/19 02:21:06;;;;;;;;;;;;;;;8.99;69.47;100740.91;214844;1259;61265;-76
2023/04/19 02:26:00;;;;;;;;;;;;;;;8.94;69.74;100739.59;215248;1261;61263;-75
2023/04/19 02:30:53;;;;;;;;;;;;;;;8.89;69.96;100740.34;215211;1260;73677;-76
2023/04/19 02:35:46;;;;;;;;;;;;;;;8.84;70.12;100740.05;215292;1260;61333;-76
2023/04/19 02:40:39;;;;;;;;;;;;;;;8.81;70.28;100739.10;215319;1262;66916;-75
2023/04/19 02:45:32;;;;;;;;;;;;;;;8.74;70.56;100734.63;215313;1260;61227;-76
2023/04/19 02:50:29;;;;;;;;;;;;;;;8.67;70.94;100734.44;215244;1258;75930;-76
2023/04/19 02:55:22;;;;;;;;;;;;;;;8.59;71.12;100730.61;215230;1260;72413;-76
2023/04/19 03:00:21;;;;;;;;;;;;;;;8.56;71.03;100720.70;215017;1261;61244;-76
2023/04/19 03:05:24;;;;;;;;;;;;;;;8.56;71.25;100720.69;215254;1261;66792;-76
2023/04/19 03:10:18;;;;;;;;;;;;;;;8.55;71.46;100716.54;215370;1260;61419;-76
2023/04/19 03:15:11;;;;;;;;;;;;;;;8.53;71.68;100716.13;215098;1260;61220;-76
2023/04/19 03:20:06;;;;;;;;;;;;;;;8.49;71.74;100711.02;215239;1260;61413;-76
2023/04/19 03:25:00;;;;;;;;;;;;;;;8.47;72.08;100708.36;215216;1259;61387;-76
2023/04/19 03:29:53;;;;;;;;;;;;;;;8.43;72.19;100701.54;215058;1260;67943;-76
2023/04/19 03:34:46;;;;;;;;;;;;;;;8.41;72.18;100701.27;215043;1259;61260;-76
2023/04/19 03:39:40;;;;;;;;;;;;;;;8.37;72.33;100694.63;214912;1260;74765;-76
2023/04/19 03:44:35;;;;;;;;;;;;;;;8.36;72.51;100691.82;215116;1260;73779;-76
2023/04/19 03:49:30;;;;;;;;;;;;;;;8.34;72.56;100685.89;214984;1259;61388;-76
2023/04/19 03:54:29;;;;;;;;;;;;;;;8.29;72.53;100680.42;215049;1260;65700;-76
2023/04/19 03:59:23;;;;;;;;;;;;;;;8.26;72.78;100679.65;214962;1259;61436;-76
2023/04/19 04:04:16;;;;;;;;;;;;;;;8.25;72.69;100673.24;215149;1261;74508;-76
2023/04/19 04:09:10;;;;;;;;;;;;;;;8.26;72.88;100668.93;215143;1259;71163;-76
2023/04/19 04:14:04;;;;;;;;;;;;;;;8.25;72.95;100667.02;214938;1259;61590;-77
2023/04/19 04:18:58;;;;;;;;;;;;;;;8.23;73.17;100665.77;215105;1258;67801;-76
2023/04/19 04:23:52;;;;;;;;;;;;;;;8.25;73.26;100666.32;214885;1261;61250;-76
2023/04/19 04:28:55;;;;;;;;;;;;;;;8.27;73.30;100659.65;214948;1259;76308;-76
2023/04/19 04:33:48;;;;;;;;;;;;;;;8.29;73.38;100658.14;215016;1259;61282;-76
2023/04/19 04:38:42;;;;;;;;;;;;;;;8.29;73.16;100654.69;214961;1260;61288;-75
2023/04/19 04:43:35;;;;;;;;;;;;;;;8.29;73.45;100653.83;215209;1260;61270;-76
2023/04/19 04:48:30;;;;;;;;;;;;;;;8.31;73.41;100651.46;214940;1259;61227;-76
2023/04/19 04:53:23;;;;;;;;;;;;;;;8.34;73.60;100654.13;215019;1259;73687;-75
2023/04/19 04:58:16;;;;;;;;;;;;;;;8.35;73.61;100651.58;214987;1260;72635;-76
2023/04/19 05:03:30;;;;;;;;;;;;;;;8.36;73.66;100650.20;214955;1259;61260;-76
2023/04/19 05:08:25;;;;;;;;;;;;;;;8.39;73.71;100650.45;215065;1259;65670;-76
2023/04/19 05:13:21;;;;;;;;;;;;;;;8.43;73.77;100640.04;215017;1258;61352;-76
2023/04/19 05:18:14;;;;;;;;;;;;;;;8.43;73.70;100636.41;215024;1260;74799;-76
2023/04/19 05:23:09;;;;;;;;;;;;;;;8.44;73.80;100636.60;214961;1260;72834;-76
2023/04/19 05:28:03;;;;;;;;;;;;;;;8.44;73.72;100634.70;214891;1260;61362;-76
2023/04/19 05:33:02;;;;;;;;;;;;;;;8.46;73.65;100634.24;215201;1259;65983;-76
2023/04/19 05:37:56;;;;;;;;;;;;;;;8.50;73.79;100633.64;215194;1258;61272;-76
2023/04/19 05:42:49;;;;;;;;;;;;;;;8.54;73.66;100633.56;215277;1260;75432;-75
2023/04/19 05:47:42;;;;;;;;;;;;;;;8.61;73.55;100632.52;215060;1259;72804;-75
2023/04/19 05:52:53;;;;;;;;;;;;;;;8.71;73.73;100636.72;215159;1260;61310;-76
2023/04/19 05:57:46;;;;;;;;;;;;;;;8.77;73.61;100631.86;215125;1260;67401;-75
2023/04/19 06:02:40;;;;;;;;;;;;;;;8.83;73.38;100628.35;215165;1259;61286;-76
2023/04/19 06:07:34;;;;;;;;;;;;;;;8.91;73.51;100629.73;214968;1260;72408;-76
2023/04/19 06:12:35;;;;;;;;;;;;;;;9.07;73.45;100626.47;214915;1259;71309;-75
2023/04/19 06:17:28;;;;;;;;;;;;;;;9.32;73.20;100625.25;215004;1260;61673;-75
2023/04/19 06:22:22;;;;;;;;;;;;;;;9.50;72.73;100619.05;215041;1260;61396;-75
2023/04/19 06:27:15;;;;;;;;;;;;;;;9.64;72.35;100619.34;215089;1260;61343;-75
2023/04/19 06:32:09;;;;;;;;;;;;;;;9.58;71.89;100614.20;215016;1259;74763;-75
2023/04/19 06:37:01;;;;;;;;;;;;;;;9.57;72.01;100617.11;214924;1259;72434;-75
2023/04/19 06:41:54;;;;;;;;;;;;;;;9.64;71.78;100615.33;215183;1259;61378;-75
2023/04/19 06:46:48;;;;;;;;;;;;;;;9.66;71.70;100620.23;215118;1259;67692;-76
2023/04/19 06:51:40;;;;;;;;;;;;;;;9.58;71.48;100623.00;215081;1260;61362;-74
2023/04/19 06:56:41;;;;;;;;;;;;;;;9.53;71.41;100623.27;215232;1259;61288;-73
2023/04/19 07:01:34;;;;;;;;;;;;;;;9.54;71.27;100622.59;215193;1258;72609;-75
2023/04/19 07:06:28;;;;;;;;;;;;;;;9.59;71.29;100614.73;215149;1259;61374;-74
2023/04/19 07:11:21;;;;;;;;;;;;;;;9.65;70.99;100621.77;215245;1259;65952;-73
2023/04/19 07:16:14;;;;;;;;;;;;;;;9.74;70.87;100621.94;215164;1260;63074;-73
2023/04/19 07:21:07;;;;;;;;;;;;;;;9.80;70.67;100622.23;215179;1259;75508;-72
2023/04/19 07:26:00;;;;;;;;;;;;;;;9.80;70.39;100627.75;215220;1260;61355;-73
2023/04/19 07:30:52;;;;;;;;;;;;;;;9.86;70.35;100628.91;215111;1260;61248;-73
2023/04/19 07:35:45;;;;;;;;;;;;;;;9.98;70.18;100632.77;215061;1259;61901;-73
2023/04/19 07:40:38;;;;;;;;;;;;;;;10.08;69.67;100637.11;215096;1259;61386;-72
2023/04/19 07:45:31;;;;;;;;;;;;;;;10.21;69.46;100634.73;215122;1259;61336;-73
2023/04/19 07:50:25;;;;;;;;;;;;;;;10.39;69.24;100627.77;215122;1259;61278;-74
2023/04/19 07:55:18;;;;;;;;;;;;;;;10.38;68.93;100624.81;214997;1260;62545;-73
2023/04/19 08:00:11;;;;;;;;;;;;;;;10.38;68.81;100625.17;215133;1260;61251;-74
2023/04/19 08:05:08;;;;;;;;;;;;;;;10.44;68.85;100621.63;215088;1260;61362;-73
2023/04/19 08:10:01;;;;;;;;;;;;;;;10.52;68.46;100621.23;214926;1260;75306;-73
2023/04/19 08:14:54;;;;;;;;;;;;;;;10.69;68.31;100616.27;215046;1259;61384;-74
2023/04/19 08:19:59;;;;;;;;;;;;;;;10.89;68.23;100610.34;214922;1260;61454;-73
2023/04/19 08:24:52;;;;;;;;;;;;;;;10.87;67.92;100616.72;215086;1258;66908;-73
2023/04/19 08:29:45;;;;;;;;;;;;;;;10.74;67.85;100617.39;215141;1259;61249;-73
2023/04/19 08:34:39;;;;;;;;;;;;;;;10.66;67.80;100621.61;214912;1260;61425;-74
2023/04/19 08:39:32;;;;;;;;;;;;;;;10.71;67.89;100625.67;215168;1260;71144;-74
2023/04/19 08:44:26;;;;;;;;;;;;;;;10.77;67.67;100628.38;215239;1260;61353;-73
2023/04/19 08:49:28;;;;;;;;;;;;;;;10.69;67.85;100635.54;215121;1259;65863;-73
2023/04/19 08:54:22;;;;;;;;;;;;;;;10.79;67.83;100629.94;215099;1260;61249;-73
2023/04/19 08:59:14;;;;;;;;;;;;;;;10.82;67.77;100631.20;215162;1259;61263;-73
2023/04/19 09:04:11;;;;;;;;;;;;;;;10.79;67.70;100639.66;215081;1259;74363;-76
2023/04/19 09:09:15;;;;;;;;;;;;;;;10.74;67.74;100638.73;215132;1260;61336;-74
2023/04/19 09:14:14;;;;;;;;;;;;;;;10.77;67.87;100635.47;215107;1260;67075;-75
2023/04/19 09:19:08;;;;;;;;;;;;;;;10.90;67.84;100632.73;215185;1260;61253;-75
2023/04/19 09:24:16;;;;;;;;;;;;;;;10.89;67.82;100642.23;215155;1260;74615;-75
2023/04/19 09:29:09;;;;;;;;;;;;;;;10.75;67.84;100649.84;215095;1259;61364;-75
2023/04/19 09:34:18;;;;;;;;;;;;;;;10.64;68.07;100655.73;215122;1260;61279;-73
2023/04/19 09:39:11;;;;;;;;;;;;;;;10.52;68.37;100654.85;214942;1260;67114;-75
2023/04/19 09:44:11;;;;;;;;;;;;;;;10.43;68.55;100656.42;215088;1260;61227;-74
2023/04/19 09:49:25;;;;;;;;;;;;;;;10.38;68.85;100655.30;215275;1259;74538;-74
2023/04/19 09:54:39;;;;;;;;;;;;;;;10.47;68.62;100659.61;215089;1258;73763;-74
2023/04/19 09:59:31;;;;;;;;;;;;;;;10.59;68.66;100658.09;215153;1260;62303;-74
2023/04/19 10:04:25;;;;;;;;;;;;;;;10.78;68.54;100656.81;215123;1260;61255;-74
2023/04/19 10:09:39;;;;;;;;;;;;;;;11.06;68.44;100651.16;214996;1260;61270;-75
2023/04/19 10:14:45;;;;;;;;;;;;;;;11.13;68.17;100656.80;215041;1260;75115;-74
2023/04/19 10:19:59;;;;;;;;;;;;;;;11.09;68.26;100651.02;215089;1262;73492;-74
2023/04/19 10:25:11;;;;;;;;;;;;;;;10.98;68.47;100652.77;215150;1259;61195;-75
2023/04/19 10:30:09;;;;;;;;;;;;;;;10.86;68.58;100654.50;215091;1259;67368;-75
2023/04/19 10:35:04;;;;;;;;;;;;;;;10.78;68.65;100658.36;215059;1262;61266;-74
2023/04/19 10:39:57;;;;;;;;;;;;;;;10.91;68.73;100656.14;215067;1260;74826;-74
2023/04/19 10:45:08;;;;;;;;;;;;;;;11.07;68.68;100653.08;215064;1259;61247;-74
2023/04/19 10:50:04;;;;;;;;;;;;;;;11.38;68.56;100652.61;215030;1260;61363;-74
2023/04/19 10:54:57;;;;;;;;;;;;;;;11.74;68.42;100649.04;215045;1260;66809;-74
2023/04/19 11:00:10;;;;;;;;;;;;;;;12.92;67.22;100645.22;215101;1260;61273;-74
2023/04/19 11:05:03;;;;;;;;;;;;;;;14.54;65.82;100640.80;215056;1262;74653;-74
2023/04/19 11:09:56;;;;;;;;;;;;;;;15.23;64.12;100636.20;215141;1258;70688;-74
2023/04/19 11:14:52;;;;;;;;;;;;;;;14.59;63.80;100635.10;215222;1259;61275;-77
2023/04/19 11:19:52;;;;;;;;;;;;;;;14.17;63.26;100644.67;215078;1258;67521;-75
2023/04/19 11:24:47;;;;;;;;;;;;;;;14.53;62.94;100631.59;215107;1259;61719;-75
2023/04/19 11:29:39;;;;;;;;;;;;;;;15.19;62.42;100627.47;215112;1261;73560;-73
2023/04/19 11:34:37;;;;;;;;;;;;;;;15.76;61.36;100631.80;215073;1260;61366;-74
2023/04/19 11:39:30;;;;;;;;;;;;;;;15.62;61.11;100635.86;215448;1259;61346;-74
2023/04/19 11:44:23;;;;;;;;;;;;;;;15.37;60.63;100633.35;215133;1259;61257;-74
2023/04/19 11:49:25;;;;;;;;;;;;;;;15.16;60.80;100633.61;215056;1259;61263;-74
2023/04/19 11:54:18;;;;;;;;;;;;;;;14.87;60.70;100636.47;215170;1260;74688;-73
2023/04/19 11:59:11;;;;;;;;;;;;;;;14.56;60.72;100645.73;215097;1259;61268;-74
2023/04/19 12:04:04;;;;;;;;;;;;;;;14.20;60.74;100651.11;215132;1259;61358;-74
2023/04/19 12:08:57;;;;;;;;;;;;;;;13.85;60.98;100657.16;215113;1260;123519;-73
2023/04/19 12:14:09;;;;;;;;;;;;;;;13.66;61.36;100664.05;215170;1258;61320;-74
2023/04/19 12:19:12;;;;;;;;;;;;;;;13.48;61.60;100669.92;215053;1260;74211;-75
2023/04/19 12:24:06;;;;;;;;;;;;;;;13.35;61.67;100668.45;215192;1260;72862;-75
2023/04/19 12:29:01;;;;;;;;;;;;;;;13.22;61.69;100668.36;215116;1260;61320;-74
2023/04/19 12:33:54;;;;;;;;;;;;;;;13.36;61.76;100670.55;215100;1260;66891;-74
2023/04/19 12:38:47;;;;;;;;;;;;;;;13.72;61.64;100672.61;215125;1258;61247;-75
2023/04/19 12:43:39;;;;;;;;;;;;;;;14.12;61.39;100669.94;215090;1260;61409;-75
2023/04/19 12:48:32;;;;;;;;;;;;;;;14.55;60.81;100665.44;215143;1260;61342;-75
2023/04/19 12:53:25;;;;;;;;;;;;;;;14.98;60.54;100654.23;215119;1260;61240;-75
2023/04/19 12:58:20;;;;;;;;;;;;;;;15.36;59.91;100652.74;215068;1260;61272;-75
2023/04/19 13:03:13;;;;;;;;;;;;;;;15.64;59.33;100652.63;215096;1261;61251;-74
2023/04/19 13:08:06;;;;;;;;;;;;;;;15.54;58.70;100651.44;215191;1260;74308;-73
2023/04/19 13:12:59;;;;;;;;;;;;;;;15.49;58.72;100649.90;215150;1260;72889;-73
2023/04/19 13:17:52;;;;;;;;;;;;;;;15.46;58.78;100647.81;215188;1262;61545;-74
2023/04/19 13:22:45;;;;;;;;;;;;;;;15.44;59.10;100642.59;215142;1258;61240;-74
2023/04/19 13:27:37;;;;;;;;;;;;;;;15.32;58.60;100641.58;215082;1260;61282;-74
2023/04/19 13:32:30;;;;;;;;;;;;;;;15.22;58.53;100639.00;215128;1259;61328;-74
2023/04/19 13:37:24;;;;;;;;;;;;;;;15.17;58.33;100638.84;215072;1260;61894;-73
2023/04/19 13:42:17;;;;;;;;;;;;;;;15.04;58.52;100643.41;215100;1261;61246;-73
2023/04/19 13:47:10;;;;;;;;;;;;;;;15.10;59.31;100638.86;215067;1260;65711;-72
2023/04/19 13:52:03;;;;;;;;;;;;;;;15.15;58.93;100637.45;215111;1260;61252;-74
2023/04/19 13:56:56;;;;;;;;;;;;;;;15.38;58.52;100634.23;215092;1259;61439;-74
2023/04/19 14:01:49;;;;;;;;;;;;;;;16.09;57.67;100634.91;215055;1262;72718;-72
2023/04/19 14:06:42;;;;;;;;;;;;;;;16.40;57.15;100629.61;215091;1261;61305;-72
2023/04/19 14:11:37;;;;;;;;;;;;;;;16.41;57.24;100626.27;215064;1260;61236;-72
2023/04/19 14:16:30;;;;;;;;;;;;;;;16.60;56.39;100621.20;215070;1260;61270;-73
2023/04/19 14:21:23;;;;;;;;;;;;;;;16.52;55.71;100616.73;215161;1262;61273;-73
2023/04/19 14:26:15;;;;;;;;;;;;;;;16.64;55.42;100614.86;215084;1260;61375;-72
2023/04/19 14:31:08;;;;;;;;;;;;;;;16.40;55.89;100612.11;214983;1262;61239;-73
2023/04/19 14:36:01;;;;;;;;;;;;;;;16.22;55.76;100610.68;215092;1259;61227;-73
2023/04/19 14:40:54;;;;;;;;;;;;;;;16.00;55.58;100614.87;215078;1260;61262;-73
2023/04/19 14:45:48;;;;;;;;;;;;;;;15.73;56.19;100616.42;215177;1260;61458;-73
2023/04/19 14:50:41;;;;;;;;;;;;;;;15.65;56.47;100614.02;215148;1262;73715;-72
2023/04/19 14:55:34;;;;;;;;;;;;;;;15.47;56.76;100622.83;215121;1260;61333;-73
2023/04/19 15:00:27;;;;;;;;;;;;;;;15.02;57.03;100638.36;215235;1258;61427;-73
2023/04/19 15:05:22;;;;;;;;;;;;;;;14.54;57.82;100652.53;215133;1260;61285;-73
2023/04/19 15:10:15;;;;;;;;;;;;;;;14.00;58.38;100669.92;215223;1260;75093;-72
2023/04/19 15:15:08;;;;;;;;;;;;;;;13.65;59.27;100671.73;215158;1262;61272;-73
2023/04/19 15:20:01;;;;;;;;;;;;;;;13.34;60.08;100675.60;215135;1260;61375;-73
2023/04/19 15:24:53;;;;;;;;;;;;;;;13.06;61.12;100680.45;215114;1260;61286;-74
2023/04/19 15:29:49;;;;;;;;;;;;;;;12.88;62.25;100679.48;215177;1260;61262;-74
2023/04/19 15:34:42;;;;;;;;;;;;;;;12.72;62.75;100685.79;215246;1258;72574;-73
2023/04/19 15:39:34;;;;;;;;;;;;;;;12.52;63.36;100688.42;215210;1260;61235;-74
2023/04/19 15:44:27;;;;;;;;;;;;;;;12.38;63.78;100689.68;215191;1258;61342;-74
2023/04/19 15:49:20;;;;;;;;;;;;;;;12.25;64.27;100689.20;215196;1260;61870;-73
2023/04/19 15:54:14;;;;;;;;;;;;;;;12.15;64.66;100693.46;215246;1260;61356;-73
2023/04/19 15:59:07;;;;;;;;;;;;;;;12.07;64.91;100696.50;215255;1258;75694;-73
2023/04/19 16:04:00;;;;;;;;;;;;;;;12.00;65.23;100700.77;215225;1259;62308;-73
2023/04/19 16:08:53;;;;;;;;;;;;;;;11.97;65.58;100699.35;215022;1258;61230;-72
2023/04/19 16:13:47;;;;;;;;;;;;;;;11.96;65.75;100702.13;214981;1260;61346;-72
2023/04/19 16:18:39;;;;;;;;;;;;;;;11.98;66.07;100707.01;215174;1260;61359;-72
2023/04/19 16:23:32;;;;;;;;;;;;;;;11.98;66.31;100710.14;215023;1259;61730;-72
2023/04/19 16:28:25;;;;;;;;;;;;;;;11.95;66.34;100714.96;215050;1261;61388;-72
2023/04/19 16:33:18;;;;;;;;;;;;;;;11.91;66.65;100719.25;215105;1262;61364;-71
2023/04/19 16:38:11;;;;;;;;;;;;;;;11.84;66.97;100724.70;215058;1260;61362;-72
2023/04/19 16:43:05;;;;;;;;;;;;;;;11.78;67.28;100732.61;214912;1259;61371;-71
2023/04/19 16:47:58;;;;;;;;;;;;;;;11.71;67.59;100739.83;214909;1260;74334;-72
2023/04/19 16:58:31;;;;;;;;;;;;;;;11.56;68.11;100740.51;215012;1261;61240;-72
2023/04/19 17:03:23;;;;;;;;;;;;;;;11.51;68.38;100741.12;215000;1260;61752;-72
2023/04/19 17:08:16;;;;;;;;;;;;;;;11.47;68.65;100748.88;215081;1259;61266;-72
2023/04/19 17:13:09;;;;;;;;;;;;;;;11.44;68.84;100752.30;215060;1260;61371;-73
2023/04/19 17:18:02;;;;;;;;;;;;;;;11.41;69.02;100759.21;215090;1260;61281;-73
2023/04/19 17:22:55;;;;;;;;;;;;;;;11.35;69.17;100762.42;215143;1260;61371;-72
2023/04/19 17:27:48;;;;;;;;;;;;;;;11.31;69.40;100770.88;215081;1260;62728;-73
2023/04/19 17:32:41;;;;;;;;;;;;;;;11.25;69.54;100775.81;215044;1262;61274;-73
2023/04/19 17:37:34;;;;;;;;;;;;;;;11.19;69.74;100782.32;214979;1263;61269;-73
2023/04/19 17:42:27;;;;;;;;;;;;;;;11.09;69.91;100790.66;215099;1260;62096;-72
2023/04/19 17:47:20;;;;;;;;;;;;;;;10.95;70.08;100799.96;214924;1260;61442;-72
2023/04/19 17:52:12;;;;;;;;;;;;;;;10.80;70.32;100805.43;215032;1261;61346;-72
2023/04/19 17:57:05;;;;;;;;;;;;;;;10.65;70.26;100802.23;215049;1260;61399;-72
2023/04/19 18:01:58;;;;;;;;;;;;;;;10.42;70.16;100807.18;214968;1259;61329;-72
2023/04/19 18:06:51;;;;;;;;;;;;;;;10.24;70.47;100810.09;215082;1261;61300;-72
2023/04/19 18:11:44;;;;;;;;;;;;;;;10.06;70.33;100815.25;214997;1262;61268;-72
2023/04/19 18:16:37;;;;;;;;;;;;;;;9.91;70.63;100817.55;215001;1261;61864;-72
2023/04/19 18:21:29;;;;;;;;;;;;;;;9.79;70.64;100817.98;215104;1260;61306;-71
2023/04/19 18:26:22;;;;;;;;;;;;;;;9.66;70.75;100819.27;215074;1260;61343;-72
2023/04/19 18:31:15;;;;;;;;;;;;;;;9.54;71.15;100824.52;215105;1260;61399;-72
2023/04/19 18:36:08;;;;;;;;;;;;;;;9.43;71.13;100829.12;215186;1260;61211;-72
2023/04/19 18:41:00;;;;;;;;;;;;;;;9.34;71.07;100829.95;214990;1262;72856;-72
2023/04/19 18:45:54;;;;;;;;;;;;;;;9.36;71.61;100828.77;215137;1260;61353;-72
2023/04/19 18:50:47;;;;;;;;;;;;;;;9.39;72.05;100830.05;215083;1262;67535;-72
2023/04/19 18:55:40;;;;;;;;;;;;;;;9.42;72.21;100826.14;215072;1261;61143;-71
2023/04/19 19:00:33;;;;;;;;;;;;;;;9.42;72.32;100825.13;215084;1262;61805;-71
2023/04/19 19:05:26;;;;;;;;;;;;;;;9.47;72.59;100826.44;215068;1261;61330;-71
2023/04/19 19:10:20;;;;;;;;;;;;;;;9.53;72.57;100832.82;215213;1260;61337;-71
2023/04/19 19:15:35;;;;;;;;;;;;;;;9.62;71.87;100831.29;215089;1262;65934;-72
2023/04/19 19:20:28;;;;;;;;;;;;;;;9.70;70.79;100835.63;215111;1263;61138;-71
2023/04/19 19:25:21;;;;;;;;;;;;;;;9.81;69.85;100833.78;215090;1261;61258;-72
2023/04/19 19:30:14;;;;;;;;;;;;;;;9.91;69.26;100830.70;215083;1260;61352;-72
2023/04/19 19:35:08;;;;;;;;;;;;;;;10.00;68.67;100832.81;214991;1261;61245;-72
2023/04/19 19:40:01;;;;;;;;;;;;;;;10.08;68.04;100838.34;214961;1262;66451;-72
2023/04/19 19:44:57;;;;;;;;;;;;;;;10.15;67.72;100832.25;215061;1263;61269;-72
2023/04/19 19:49:50;;;;;;;;;;;;;;;10.18;67.64;100824.52;215130;1262;61288;-72
2023/04/19 19:55:03;;;;;;;;;;;;;;;10.18;68.09;100812.73;215102;1259;72774;-73
2023/04/19 19:59:55;;;;;;;;;;;;;;;10.16;68.09;100814.08;215162;1260;61246;-72
2023/04/19 20:05:08;;;;;;;;;;;;;;;10.13;68.97;100810.38;215125;1261;67753;-73
2023/04/19 20:10:01;;;;;;;;;;;;;;;10.10;69.32;100818.46;215909;1262;61233;-72
2023/04/19 20:14:54;;;;;;;;;;;;;;;10.06;69.23;100822.04;215129;1263;61260;-72
2023/04/19 20:19:47;;;;;;;;;;;;;;;10.01;69.21;100836.46;215077;1261;61429;-72
2023/04/19 20:24:41;;;;;;;;;;;;;;;9.97;69.04;100836.89;215167;1262;61250;-72
2023/04/19 20:29:34;;;;;;;;;;;;;;;9.91;69.27;100844.05;215000;1261;67055;-72
2023/04/19 20:34:26;;;;;;;;;;;;;;;9.87;69.42;100844.13;215159;1258;61288;-73
2023/04/19 20:39:19;;;;;;;;;;;;;;;9.83;69.33;100846.45;215098;1260;61358;-72
2023/04/19 20:44:12;;;;;;;;;;;;;;;9.79;69.59;100845.35;215097;1263;61268;-72
2023/04/19 20:49:05;;;;;;;;;;;;;;;9.77;69.67;100846.33;215156;1261;61240;-72
2023/04/19 20:54:00;;;;;;;;;;;;;;;9.73;70.15;100842.44;215118;1260;61381;-73
2023/04/19 20:58:53;;;;;;;;;;;;;;;9.71;70.19;100844.45;215016;1260;61228;-72
2023/04/19 21:03:46;;;;;;;;;;;;;;;9.68;70.27;100851.33;215105;1262;61416;-73
2023/04/19 21:08:39;;;;;;;;;;;;;;;9.64;70.38;100847.43;215094;1260;71483;-73
2023/04/19 21:13:32;;;;;;;;;;;;;;;9.60;70.45;100853.03;215129;1260;61259;-73
2023/04/19 21:18:28;;;;;;;;;;;;;;;9.56;70.50;100857.61;215148;1260;61240;-72
2023/04/19 21:23:21;;;;;;;;;;;;;;;9.53;70.51;100858.77;215044;1259;65304;-72
2023/04/19 21:28:14;;;;;;;;;;;;;;;9.52;70.79;100860.14;215040;1260;61246;-73
2023/04/19 21:33:17;;;;;;;;;;;;;;;9.48;71.12;100866.11;215067;1260;72888;-72
2023/04/19 21:38:11;;;;;;;;;;;;;;;9.47;71.23;100867.12;215213;1263;61243;-73
2023/04/19 21:43:04;;;;;;;;;;;;;;;9.47;71.34;100867.63;215038;1261;61707;-73
2023/04/19 21:47:57;;;;;;;;;;;;;;;9.46;71.41;100864.50;215050;1260;61474;-73
2023/04/19 21:52:50;;;;;;;;;;;;;;;9.46;71.37;100871.06;215120;1261;73069;-73
2023/04/19 21:57:43;;;;;;;;;;;;;;;9.46;71.45;100868.28;215113;1260;61337;-73
2023/04/19 22:02:36;;;;;;;;;;;;;;;9.43;71.62;100868.39;215018;1261;61695;-72
2023/04/19 22:07:30;;;;;;;;;;;;;;;9.39;71.50;100868.83;215153;1261;61289;-73
2023/04/19 22:12:23;;;;;;;;;;;;;;;9.37;71.38;100869.98;215172;1258;61609;-73
2023/04/19 22:17:17;;;;;;;;;;;;;;;9.35;71.33;100867.69;215202;1260;61240;-73
2023/04/19 22:22:10;;;;;;;;;;;;;;;9.34;70.76;100869.22;215258;1260;72551;-72
2023/04/19 22:27:03;;;;;;;;;;;;;;;9.37;70.66;100865.66;215082;1262;61263;-73
2023/04/19 22:31:56;;;;;;;;;;;;;;;9.40;70.41;100864.69;215252;1257;61272;-72
2023/04/19 22:36:49;;;;;;;;;;;;;;;9.42;70.36;100860.41;215257;1261;61362;-73
2023/04/19 22:41:41;;;;;;;;;;;;;;;9.43;70.07;100861.82;215218;1260;61572;-73
2023/04/19 22:46:35;;;;;;;;;;;;;;;9.45;69.97;100856.52;215180;1262;61281;-73
2023/04/19 22:51:29;;;;;;;;;;;;;;;9.46;69.98;100855.33;215156;1259;61362;-73
2023/04/19 22:56:21;;;;;;;;;;;;;;;9.44;69.90;100853.71;215038;1260;66179;-73
2023/04/19 23:01:14;;;;;;;;;;;;;;;9.39;69.76;100858.80;215184;1262;61276;-73
2023/04/19 23:06:08;;;;;;;;;;;;;;;9.34;69.67;100857.97;215174;1258;61249;-73
2023/04/19 23:11:01;;;;;;;;;;;;;;;9.29;69.82;100853.86;215220;1262;72416;-72
2023/04/19 23:15:54;;;;;;;;;;;;;;;9.24;69.91;100858.25;215187;1262;61275;-72
2023/04/19 23:20:47;;;;;;;;;;;;;;;9.23;69.94;100857.84;215009;1261;67941;-72
2023/04/19 23:25:39;;;;;;;;;;;;;;;9.21;70.06;100858.52;215135;1260;61278;-73
2023/04/19 23:30:32;;;;;;;;;;;;;;;9.15;69.79;100855.96;215090;1260;61769;-72
2023/04/19 23:35:25;;;;;;;;;;;;;;;9.08;69.89;100853.36;214984;1260;61286;-72
2023/04/19 23:40:18;;;;;;;;;;;;;;;8.98;69.97;100851.73;214967;1262;61337;-73
2023/04/19 23:45:10;;;;;;;;;;;;;;;8.90;70.13;100845.80;214980;1259;61217;-72
2023/04/19 23:50:03;;;;;;;;;;;;;;;8.82;70.08;100842.31;214952;1259;61390;-73
2023/04/19 23:54:56;;;;;;;;;;;;;;;8.73;70.22;100846.92;215172;1260;68333;-72
